Time;durP1;ratioP1;P1;durP2;ratioP2;P2;SDS_P1;SDS_P2;PMS_P1;PMS_P2;Temp;Humidity;BMP_temperature;BMP_pressure;BME280_temperature;BME280_humidity;BME280_pressure;Samples;Min_cycle;Max_cycle;Signal;HPM_P1;HPM_P2
2023/05/15 00:20:53;;;;;;;74.80;14.13;;;15.00;99.90;;;;;;4890962;29;20405;-88
2023/05/15 00:23:52;;;;;;;;;;;;;;;;;;;;;
2023/05/15 00:27:06;;;;;;;;;;;;;;;;;;;;;
2023/05/15 00:33:41;;;;;;;77.77;16.63;;;14.90;99.90;;;;;;4902503;29;20440;-88
2023/05/15 00:40:51;;;;;;;;;;;;;;;;;;;;;
2023/05/15 00:44:00;;;;;;;77.40;16.90;;;15.00;99.90;;;;;;4843518;29;20410;-88
2023/05/15 00:50:22;;;;;;;87.10;19.87;;;14.90;99.90;;;;;;4852001;29;20430;-88
2023/05/15 00:53:34;;;;;;;;;;;;;;;;;;;;;
2023/05/15 00:59:02;;;;;;;79.70;20.47;;;14.90;99.90;;;;;;4195848;27;20483;-88
2023/05/15 01:01:49;;;;;;;86.67;22.13;;;14.90;99.90;;;;;;4877749;29;20894;-88
2023/05/15 01:08:32;;;;;;;;;;;;;;;;;;;;;
2023/05/15 01:11:49;;;;;;;84.03;20.57;;;14.80;99.90;;;;;;4880051;29;20426;-88
2023/05/15 01:15:04;;;;;;;81.87;20.97;;;14.90;99.90;;;;;;4776487;29;20457;-88
2023/05/15 01:18:31;;;;;;;;;;;;;;;;;;;;;
2023/05/15 01:25:39;;;;;;;86.23;24.60;;;14.80;99.90;;;;;;4824520;29;20444;-88
2023/05/15 01:32:20;;;;;;;;;;;;;;;;;;;;;
2023/05/15 01:35:23;;;;;;;89.93;25.80;;;14.80;99.90;;;;;;4752440;30;20415;-88
2023/05/15 01:38:49;;;;;;;92.60;27.60;;;14.90;99.90;;;;;;4755637;29;21015;-89
2023/05/15 01:41:54;;;;;;;91.70;27.27;;;14.90;99.90;;;;;;4881615;29;20412;-88
2023/05/15 01:44:58;;;;;;;;;;;;;;;;;;;;;
2023/05/15 01:48:16;;;;;;;;;;;;;;;;;;;;;
2023/05/15 01:51:02;;;;;;;93.87;26.97;;;15.00;99.90;;;;;;4867591;29;20422;-88
2023/05/15 01:54:06;;;;;;;89.37;25.50;;;15.00;99.90;;;;;;4881601;29;20414;-88
2023/05/15 01:57:19;;;;;;;96.63;30.87;;;15.10;99.90;;;;;;4875655;29;20470;-88
2023/05/15 01:59:58;;;;;;;94.70;27.10;;;15.10;99.90;;;;;;4862644;29;20437;-88
2023/05/15 02:02:52;;;;;;;94.60;31.30;;;15.00;99.90;;;;;;4881621;29;20793;-88
2023/05/15 02:05:32;;;;;;;;;;;;;;;;;;;;;
2023/05/15 02:08:32;;;;;;;93.10;28.43;;;15.10;99.90;;;;;;4879253;29;21013;-88
2023/05/15 02:11:15;;;;;;;;;;;;;;;;;;;;;
2023/05/15 02:14:04;;;;;;;102.03;31.47;;;15.10;99.90;;;;;;4883844;29;20503;-88
2023/05/15 02:16:56;;;;;;;;;;;;;;;;;;;;;
2023/05/15 02:19:36;;;;;;;101.17;30.80;;;15.20;99.90;;;;;;4882013;29;20488;-88
2023/05/15 02:22:50;;;;;;;102.40;31.70;;;15.10;99.90;;;;;;4883318;29;20416;-88
2023/05/15 02:25:50;;;;;;;106.73;33.20;;;15.10;99.90;;;;;;4882067;29;20450;-87
2023/05/15 02:29:11;;;;;;;;;;;;;;;;;;;;;
2023/05/15 02:32:13;;;;;;;105.67;34.93;;;15.20;99.90;;;;;;4861032;29;21008;-87
2023/05/15 02:35:11;;;;;;;114.37;35.97;;;15.20;99.90;;;;;;4881367;29;20784;-88
2023/05/15 02:39:20;;;;;;;110.40;33.20;;;15.20;99.90;;;;;;4880181;29;21006;-88
2023/05/15 02:41:53;;;;;;;;;;;;;;;;;;;;;
2023/05/15 02:44:31;;;;;;;114.50;37.00;;;15.10;99.90;;;;;;4874023;29;20512;-87
2023/05/15 02:47:17;;;;;;;109.40;35.20;;;15.10;99.90;;;;;;4880687;29;20460;-88
2023/05/15 02:50:17;;;;;;;112.07;33.50;;;15.10;99.90;;;;;;4881098;29;20920;-87
2023/05/15 02:53:02;;;;;;;108.40;37.30;;;15.10;99.90;;;;;;4876003;29;20429;-88
2023/05/15 02:56:02;;;;;;;108.37;33.77;;;15.10;99.90;;;;;;4881812;29;20385;-88
2023/05/15 02:58:49;;;;;;;109.97;35.63;;;15.00;99.90;;;;;;4880681;29;20415;-87
2023/05/15 03:01:36;;;;;;;112.03;34.37;;;15.00;99.90;;;;;;4880863;29;20491;-88
2023/05/15 03:07:18;;;;;;;116.20;36.77;;;15.00;99.90;;;;;;4877355;29;20441;-88
2023/05/15 03:09:47;;;;;;;112.33;35.50;;;15.00;99.90;;;;;;4880426;29;20452;-88
2023/05/15 03:12:26;;;;;;;113.33;35.77;;;15.00;99.90;;;;;;4881734;29;20411;-88
2023/05/15 03:18:17;;;;;;;120.90;38.23;;;15.10;99.90;;;;;;4924713;23;20491;-87
2023/05/15 04:12:50;;;;;;;;;;;;;;;;;;;;;
2023/05/15 04:28:26;;;;;;;;;;;;;;;;;;;;;
2023/05/15 04:31:47;;;;;;;;;;;;;;;;;;;;;
2023/05/15 05:23:40;;;;;;;;;;;;;;;;;;;;;
2023/05/15 05:38:42;;;;;;;108.37;31.47;;;14.60;99.90;;;;;;4927732;23;20490;-84
2023/05/15 06:02:11;;;;;;;126.40;41.27;;;14.60;99.90;;;;;;4880371;29;20478;-85
2023/05/15 06:08:48;;;;;;;134.77;41.40;;;14.10;99.90;;;;;;4821973;29;20437;-85
2023/05/15 06:11:48;;;;;;;116.97;36.47;;;14.10;99.90;;;;;;4808333;29;20453;-85
2023/05/15 06:45:52;;;;;;;120.50;34.57;;;14.20;99.90;;;;;;4804474;29;20504;-85
2023/05/15 06:48:52;;;;;;;121.53;35.50;;;14.20;99.90;;;;;;4733758;30;20464;-85
2023/05/15 06:52:20;;;;;;;125.37;36.70;;;14.00;99.90;;;;;;4716348;30;20438;-85
2023/05/15 06:55:33;;;;;;;111.97;33.37;;;14.10;99.90;;;;;;4651837;30;20437;-85
2023/05/15 06:58:05;;;;;;;113.67;32.97;;;14.20;99.90;;;;;;4698217;30;20582;-84
2023/05/15 07:00:34;;;;;;;110.40;33.43;;;14.40;99.90;;;;;;4697974;30;20474;-85
2023/05/15 07:03:36;;;;;;;113.13;35.10;;;14.50;99.90;;;;;;4698482;30;20417;-85
2023/05/15 07:09:30;;;;;;;116.57;35.80;;;14.50;99.90;;;;;;4863818;29;20764;-84
2023/05/15 07:12:54;;;;;;;108.93;31.10;;;14.60;99.90;;;;;;4902296;29;20438;-85
2023/05/15 07:25:09;;;;;;;114.23;35.17;;;14.70;99.90;;;;;;4881359;29;20531;-85
2023/05/15 07:28:11;;;;;;;112.77;35.33;;;14.50;99.90;;;;;;4881364;29;20534;-84
2023/05/15 07:49:44;;;;;;;;;;;;;;;;;;;;;
2023/05/15 07:52:37;;;;;;;117.57;37.13;;;14.50;99.90;;;;;;4788830;29;20425;-85
2023/05/15 08:13:44;;;;;;;116.60;38.97;;;14.90;99.90;;;;;;4757281;30;20417;-85
2023/05/15 08:17:11;;;;;;;115.50;37.40;;;15.00;99.90;;;;;;4736983;30;21002;-85
2023/05/15 08:20:38;;;;;;;113.27;38.30;;;15.00;99.90;;;;;;4720730;30;20461;-85
2023/05/15 08:24:18;;;;;;;122.87;40.10;;;15.00;99.90;;;;;;4710151;30;20460;-85
2023/05/15 08:30:05;;;;;;;;;;;;;;;;;;;;;
2023/05/15 08:43:55;;;;;;;115.87;34.47;;;15.30;99.90;;;;;;4843453;29;20456;-85
2023/05/15 08:46:49;;;;;;;115.33;33.13;;;15.40;99.90;;;;;;4805727;29;20452;-85
2023/05/15 08:49:53;;;;;;;111.20;32.73;;;15.50;95.70;;;;;;4819041;29;20423;-85
2023/05/15 08:56:37;;;;;;;112.70;32.00;;;15.80;99.30;;;;;;4831157;29;20568;-85
2023/05/15 09:27:47;;;;;;;107.03;35.77;;;17.60;54.20;;;;;;4883734;29;20466;-85
2023/05/15 09:30:22;;;;;;;107.27;38.13;;;17.60;57.40;;;;;;4898388;29;20419;-86
2023/05/15 09:32:48;;;;;;;103.43;37.90;;;17.60;54.70;;;;;;4899539;29;20831;-86
2023/05/15 09:35:34;;;;;;;108.73;38.73;;;17.50;51.40;;;;;;4885312;29;20400;-85
2023/05/15 09:38:06;;;;;;;107.07;36.23;;;17.50;50.90;;;;;;4878872;29;20455;-86
2023/05/15 09:40:32;;;;;;;97.07;35.03;;;17.50;53.00;;;;;;4862973;29;20401;-85
2023/05/15 09:43:01;;;;;;;101.80;32.83;;;17.60;50.30;;;;;;4862377;29;20401;-85
2023/05/15 09:45:28;;;;;;;100.73;36.60;;;17.50;27.50;;;;;;4861957;29;20175;-84
2023/05/15 09:47:56;;;;;;;101.70;35.63;;;17.40;47.80;;;;;;4876488;29;20425;-84
2023/05/15 09:50:23;;;;;;;95.67;29.63;;;17.40;50.80;;;;;;4862526;29;20471;-84
2023/05/15 09:57:49;;;;;;;91.73;24.87;;;17.50;8.00;;;;;;4821773;29;20465;-85
2023/05/15 10:33:25;;;;;;;93.00;21.43;;;18.80;1.00;;;;;;4680159;30;20790;-86
2023/05/15 10:51:45;;;;;;;;;;;;;;;;;;;;;
2023/05/15 10:55:33;;;;;;;;;;;;;;;;;;;;;
2023/05/15 10:59:18;;;;;;;87.90;16.77;;;20.20;1.00;;;;;;4818684;29;20477;-85
2023/05/15 11:11:00;;;;;;;;;;;;;;;;;;;;;
2023/05/15 11:14:25;;;;;;;;;;;;;;;;;;;;;
2023/05/15 11:25:00;;;;;;;;;;;;;;;;;;;;;
2023/05/15 11:31:22;;;;;;;84.20;17.40;;;20.60;1.00;;;;;;4880877;29;20410;-87
2023/05/15 11:43:47;;;;;;;81.43;15.67;;;20.60;1.00;;;;;;4845409;29;20414;-85
2023/05/15 11:57:38;;;;;;;78.90;13.30;;;21.20;1.00;;;;;;4806458;29;20528;-85
2023/05/15 12:00:26;;;;;;;80.63;15.40;;;21.10;1.00;;;;;;4806484;29;20426;-85
2023/05/15 12:04:16;;;;;;;76.23;12.20;;;21.20;1.00;;;;;;4806670;29;20521;-85
2023/05/15 12:20:36;;;;;;;88.73;16.90;;;21.20;1.00;;;;;;4788383;30;20488;-85
2023/05/15 12:34:31;;;;;;;;;;;;;;;;;;;;;
2023/05/15 12:42:28;;;;;;;;;;;;;;;;;;;;;
2023/05/15 12:52:32;;;;;;;81.43;15.40;;;21.50;1.00;;;;;;4777576;30;20515;-86
2023/05/15 13:16:17;;;;;;;78.77;12.37;;;21.70;1.00;;;;;;4783713;29;20437;-86
2023/05/15 13:47:22;;;;;;;78.20;15.00;;;22.10;1.00;;;;;;3061254;27;20491;-85
2023/05/15 13:50:36;;;;;;;77.77;13.67;;;22.30;1.00;;;;;;4861989;29;20435;-86
2023/05/15 13:53:59;;;;;;;;;;;;;;;;;;;;;
2023/05/15 14:02:35;;;;;;;77.90;12.57;;;21.40;1.00;;;;;;2651010;27;20845;-85
2023/05/15 14:34:28;;;;;;;85.77;22.00;;;20.20;1.00;;;;;;936131;27;21583;-85
2023/05/15 14:59:31;;;;;;;;;;;;;;;;;;;;;
2023/05/15 15:13:50;;;;;;;85.20;14.13;;;20.50;1.00;;;;;;4749751;30;20428;-85
2023/05/15 15:22:34;;;;;;;92.07;19.30;;;21.40;1.00;;;;;;4956829;23;20524;-82
2023/05/15 15:25:04;;;;;;;84.87;18.20;;;21.30;1.00;;;;;;4899449;29;20834;-82
2023/05/15 15:27:35;;;;;;;87.43;19.47;;;21.30;1.00;;;;;;4903062;29;20440;-82
2023/05/15 15:30:06;;;;;;;90.67;18.23;;;21.60;1.00;;;;;;4903000;29;20410;-82
2023/05/15 15:32:33;;;;;;;83.37;18.30;;;21.40;1.00;;;;;;4903385;29;20416;-82
2023/05/15 15:34:58;;;;;;;86.97;18.90;;;20.90;1.00;;;;;;4902988;29;20418;-82
2023/05/15 15:37:34;;;;;;;87.30;17.60;;;20.60;1.00;;;;;;4903388;29;20963;-82
2023/05/15 15:40:04;;;;;;;81.83;18.40;;;20.50;1.00;;;;;;4903379;29;20176;-83
2023/05/15 15:42:30;;;;;;;90.23;17.30;;;20.20;1.00;;;;;;4905059;29;20426;-82
2023/05/15 15:44:57;;;;;;;83.27;18.53;;;20.10;1.00;;;;;;4904669;29;20413;-83
2023/05/15 15:47:23;;;;;;;82.10;18.13;;;20.20;1.00;;;;;;4904456;29;20438;-83
2023/05/15 15:50:05;;;;;;;86.80;18.33;;;20.00;1.00;;;;;;4904596;29;20869;-83
2023/05/15 15:52:34;;;;;;;83.10;16.07;;;19.70;1.00;;;;;;4904943;29;20156;-82
2023/05/15 15:55:03;;;;;;;84.37;18.17;;;19.40;1.00;;;;;;4904361;29;20419;-83
2023/05/15 15:57:29;;;;;;;85.23;16.70;;;19.20;1.00;;;;;;4904853;29;20463;-83
2023/05/15 16:00:01;;;;;;;82.30;17.30;;;19.10;1.00;;;;;;4971286;23;20410;-82
2023/05/15 16:02:27;;;;;;;85.07;15.97;;;19.00;1.00;;;;;;4916016;29;20454;-83
2023/05/15 16:04:53;;;;;;;80.10;16.60;;;19.00;1.00;;;;;;4883831;29;20921;-82
2023/05/15 16:07:21;;;;;;;84.30;17.20;;;18.90;1.00;;;;;;4884856;29;20419;-83
2023/05/15 16:09:50;;;;;;;79.13;14.53;;;19.00;1.00;;;;;;4886620;29;20167;-83
2023/05/15 16:12:16;;;;;;;79.80;14.80;;;18.70;1.00;;;;;;4883829;29;20407;-82
2023/05/15 16:14:41;;;;;;;79.13;14.73;;;18.50;1.00;;;;;;4883276;29;20415;-82
2023/05/15 16:17:07;;;;;;;76.77;14.03;;;18.40;1.00;;;;;;4884210;29;20681;-83
2023/05/15 16:19:33;;;;;;;84.70;17.00;;;18.40;1.00;;;;;;4885317;29;20171;-82
2023/05/15 16:21:58;;;;;;;81.27;14.73;;;18.30;1.00;;;;;;4899338;29;20227;-82
2023/05/15 16:24:25;;;;;;;80.77;14.50;;;18.30;1.00;;;;;;4885351;29;20262;-83
2023/05/15 16:26:51;;;;;;;78.67;14.80;;;18.30;1.00;;;;;;4885397;29;20659;-83
2023/05/15 16:29:17;;;;;;;86.90;16.70;;;18.20;1.00;;;;;;4885373;29;20411;-83
2023/05/15 16:31:43;;;;;;;83.40;17.93;;;18.20;1.00;;;;;;4885273;29;20422;-82
2023/05/15 16:34:09;;;;;;;85.23;17.40;;;18.20;1.00;;;;;;4885662;29;20435;-82
2023/05/15 16:36:35;;;;;;;82.00;16.80;;;18.20;1.00;;;;;;4884784;29;20459;-83
2023/05/15 16:39:01;;;;;;;83.10;17.67;;;18.10;1.00;;;;;;4884992;29;20254;-83
2023/05/15 16:41:27;;;;;;;84.33;16.13;;;18.00;1.00;;;;;;4884353;29;20170;-82
2023/05/15 16:43:53;;;;;;;87.43;18.30;;;18.00;1.00;;;;;;4885550;29;20403;-83
2023/05/15 16:46:18;;;;;;;104.80;19.90;;;17.90;1.00;;;;;;4885871;29;20213;-84
2023/05/15 16:48:44;;;;;;;85.43;16.70;;;17.80;1.00;;;;;;4898844;29;20179;-83
2023/05/15 16:51:10;;;;;;;84.43;16.93;;;17.50;1.00;;;;;;4885309;29;20253;-83
2023/05/15 16:53:35;;;;;;;85.70;17.93;;;17.50;6.20;;;;;;4884861;29;20207;-83
2023/05/15 16:56:01;;;;;;;87.33;18.93;;;17.50;12.50;;;;;;4884481;29;20190;-83
2023/05/15 16:58:27;;;;;;;88.90;22.03;;;17.50;12.20;;;;;;4886059;29;20175;-83
2023/05/15 17:00:52;;;;;;;88.40;20.43;;;17.40;17.80;;;;;;4884187;29;20182;-83
2023/05/15 17:03:19;;;;;;;87.03;21.37;;;17.30;18.40;;;;;;4883966;29;20167;-83
2023/05/15 17:05:46;;;;;;;85.90;20.77;;;17.30;26.80;;;;;;4884604;29;20178;-83
2023/05/15 17:08:11;;;;;;;86.03;21.50;;;17.40;25.00;;;;;;4885361;29;20422;-82
2023/05/15 17:10:37;;;;;;;86.17;20.00;;;17.50;25.20;;;;;;4884023;29;20787;-82
2023/05/15 17:13:03;;;;;;;85.27;19.83;;;17.70;23.90;;;;;;4884824;29;20175;-82
2023/05/15 17:15:29;;;;;;;88.93;21.50;;;17.80;14.90;;;;;;4885288;29;20415;-82
2023/05/15 17:17:57;;;;;;;93.50;21.27;;;17.80;16.00;;;;;;4885004;29;20225;-83
2023/05/15 17:20:23;;;;;;;91.97;22.80;;;17.90;12.10;;;;;;4884751;29;20447;-83
2023/05/15 17:22:49;;;;;;;91.80;23.70;;;17.80;14.90;;;;;;4884587;29;20414;-82
2023/05/15 17:25:14;;;;;;;93.80;21.93;;;17.70;16.80;;;;;;4882818;29;20182;-83
2023/05/15 17:27:40;;;;;;;91.67;23.10;;;17.80;20.00;;;;;;4882888;29;20199;-83
2023/05/15 17:30:10;;;;;;;88.30;21.07;;;18.00;15.30;;;;;;4883619;29;20307;-83
2023/05/15 17:32:37;;;;;;;88.07;20.10;;;18.00;13.50;;;;;;4883438;29;20213;-83
2023/05/15 17:35:03;;;;;;;95.67;23.67;;;18.00;19.30;;;;;;4884624;29;20499;-83
2023/05/15 17:37:29;;;;;;;91.27;21.60;;;17.90;12.80;;;;;;4884723;29;20447;-83
2023/05/15 17:39:55;;;;;;;87.47;21.30;;;17.70;21.70;;;;;;4883378;29;20419;-83
2023/05/15 17:42:21;;;;;;;89.23;22.10;;;17.70;21.80;;;;;;4884327;29;20185;-82
2023/05/15 17:44:47;;;;;;;89.67;22.50;;;17.70;22.90;;;;;;4884082;29;20605;-82
2023/05/15 17:47:12;;;;;;;88.50;20.93;;;17.70;22.10;;;;;;4884445;29;20548;-83
2023/05/15 17:49:38;;;;;;;92.60;23.57;;;17.60;29.10;;;;;;4881391;29;20436;-82
2023/05/15 17:52:05;;;;;;;95.40;22.93;;;17.60;24.70;;;;;;4898132;29;20174;-83
2023/05/15 17:54:30;;;;;;;93.60;23.00;;;17.30;27.50;;;;;;4882954;29;20412;-83
2023/05/15 17:56:58;;;;;;;90.50;21.63;;;17.20;33.40;;;;;;4883425;29;20896;-83
2023/05/15 17:59:23;;;;;;;92.33;22.17;;;17.20;36.20;;;;;;4883003;29;20178;-83
2023/05/15 18:01:49;;;;;;;90.20;22.53;;;17.30;33.30;;;;;;4883140;29;20423;-83
2023/05/15 18:04:17;;;;;;;96.97;23.30;;;17.30;34.60;;;;;;4883564;29;20183;-82
2023/05/15 18:06:43;;;;;;;98.27;24.07;;;17.30;42.80;;;;;;4883342;29;20522;-82
2023/05/15 18:09:09;;;;;;;98.70;24.70;;;17.30;58.70;;;;;;4883400;29;20416;-82
2023/05/15 18:11:34;;;;;;;101.30;24.57;;;17.30;70.20;;;;;;4883529;29;20217;-82
2023/05/15 18:14:00;;;;;;;95.90;23.30;;;17.30;74.30;;;;;;4883364;29;20407;-83
2023/05/15 18:16:26;;;;;;;103.90;24.47;;;17.20;81.00;;;;;;4883394;29;20198;-83
2023/05/15 18:18:55;;;;;;;98.67;26.20;;;17.20;78.50;;;;;;4883447;29;20219;-83
2023/05/15 18:21:26;;;;;;;99.40;23.97;;;17.00;84.80;;;;;;4883851;29;20416;-82
2023/05/15 18:23:52;;;;;;;99.90;23.67;;;17.00;84.30;;;;;;4883383;29;20407;-82
2023/05/15 18:26:18;;;;;;;99.87;24.73;;;17.00;87.20;;;;;;4883117;29;20927;-82
2023/05/15 18:28:46;;;;;;;95.77;22.97;;;16.90;90.30;;;;;;4883012;29;20170;-82
2023/05/15 18:31:12;;;;;;;98.90;24.00;;;16.90;89.60;;;;;;4883424;29;20167;-82
2023/05/15 18:33:39;;;;;;;99.10;25.57;;;17.00;88.00;;;;;;4882669;29;20415;-83
2023/05/15 18:36:06;;;;;;;92.13;23.90;;;17.00;91.10;;;;;;4883193;29;20674;-82
2023/05/15 18:38:31;;;;;;;96.27;27.13;;;17.00;90.80;;;;;;4882082;29;20506;-83
2023/05/15 18:40:57;;;;;;;101.17;26.17;;;17.00;93.00;;;;;;4882282;29;20499;-82
2023/05/15 18:43:23;;;;;;;104.13;29.20;;;16.80;98.40;;;;;;4881913;29;20174;-82
2023/05/15 18:45:48;;;;;;;96.50;26.43;;;16.80;98.30;;;;;;4881673;29;20221;-83
2023/05/15 18:48:14;;;;;;;102.07;27.83;;;16.70;99.90;;;;;;4882991;29;20179;-83
2023/05/15 18:50:42;;;;;;;95.37;26.53;;;16.70;99.90;;;;;;4883839;29;20197;-83
2023/05/15 18:53:11;;;;;;;98.07;25.60;;;16.60;99.90;;;;;;4882976;29;20171;-83
2023/05/15 18:55:38;;;;;;;93.70;25.30;;;16.60;99.90;;;;;;4881746;29;20503;-82
2023/05/15 18:58:04;;;;;;;97.83;26.90;;;16.70;99.90;;;;;;4880944;29;20485;-82
2023/05/15 19:00:33;;;;;;;100.00;27.77;;;16.60;99.90;;;;;;4882310;29;20506;-83
2023/05/15 19:02:58;;;;;;;93.57;26.07;;;16.60;99.90;;;;;;4887066;29;20395;-82
2023/05/15 19:05:26;;;;;;;95.17;26.30;;;16.50;99.90;;;;;;4885731;29;20847;-83
2023/05/15 19:07:52;;;;;;;94.43;26.97;;;16.50;99.90;;;;;;4886418;29;20170;-83
2023/05/15 19:10:17;;;;;;;95.90;26.23;;;16.40;99.90;;;;;;4885057;29;20431;-82
2023/05/15 19:12:44;;;;;;;91.77;24.87;;;16.40;99.90;;;;;;4883808;29;20427;-83
2023/05/15 19:15:12;;;;;;;92.20;27.07;;;16.40;99.90;;;;;;4885114;29;20178;-82
2023/05/15 19:17:38;;;;;;;88.97;22.93;;;16.50;99.90;;;;;;4884621;29;20470;-82
2023/05/15 19:20:10;;;;;;;92.47;23.87;;;16.40;99.90;;;;;;4884592;29;20403;-82
2023/05/15 19:22:36;;;;;;;88.40;20.20;;;16.30;99.90;;;;;;4885143;29;20407;-82
2023/05/15 19:25:02;;;;;;;85.00;20.00;;;16.30;99.90;;;;;;4884939;29;20463;-82
2023/05/15 19:27:27;;;;;;;80.17;17.80;;;16.30;99.90;;;;;;4885000;29;20197;-82
2023/05/15 19:29:53;;;;;;;76.70;13.97;;;16.20;98.30;;;;;;4885338;29;20262;-82
2023/05/15 19:32:18;;;;;;;73.30;11.30;;;16.20;95.90;;;;;;4884552;29;20215;-83
2023/05/15 19:34:45;;;;;;;72.67;11.77;;;16.10;93.60;;;;;;4883999;29;20178;-82
2023/05/15 19:37:10;;;;;;;77.20;8.70;;;16.10;89.20;;;;;;4882836;29;20209;-82
2023/05/15 19:39:36;;;;;;;71.77;9.57;;;15.90;79.40;;;;;;4883229;29;20451;-82
2023/05/15 19:42:02;;;;;;;77.20;10.60;;;15.70;80.50;;;;;;4884506;29;20169;-82
2023/05/15 19:44:27;;;;;;;76.80;11.07;;;15.50;90.20;;;;;;4885673;29;20656;-82
2023/05/15 19:46:53;;;;;;;80.30;10.60;;;15.50;91.10;;;;;;4884657;29;20497;-83
2023/05/15 19:49:19;;;;;;;72.57;10.83;;;15.40;90.30;;;;;;4885142;29;20184;-83
2023/05/15 19:51:50;;;;;;;71.70;10.93;;;15.30;91.10;;;;;;4884768;29;20171;-82
2023/05/15 19:54:22;;;;;;;72.13;11.23;;;15.20;87.70;;;;;;4883564;29;20172;-82
2023/05/15 19:56:48;;;;;;;71.80;14.07;;;15.10;86.00;;;;;;4882499;29;20512;-81
2023/05/15 19:59:16;;;;;;;73.70;10.83;;;15.20;86.00;;;;;;4883635;29;20424;-81
2023/05/15 20:01:42;;;;;;;73.20;10.80;;;15.10;88.30;;;;;;4884407;29;20183;-82
2023/05/15 20:04:13;;;;;;;71.67;9.60;;;15.00;93.00;;;;;;4884594;29;20916;-82
2023/05/15 20:06:39;;;;;;;70.07;11.80;;;15.00;93.60;;;;;;4886032;29;20190;-82
2023/05/15 20:09:04;;;;;;;74.70;14.10;;;14.90;96.60;;;;;;4884356;29;20430;-82
2023/05/15 20:11:30;;;;;;;73.67;11.40;;;14.90;97.20;;;;;;4885537;29;20535;-82
2023/05/15 20:13:56;;;;;;;74.30;12.20;;;14.90;97.10;;;;;;4884909;29;20175;-83
2023/05/15 20:16:21;;;;;;;70.70;11.57;;;14.80;98.40;;;;;;4885848;29;20199;-82
2023/05/15 20:18:49;;;;;;;74.70;12.60;;;14.90;98.50;;;;;;4885674;29;20173;-82
2023/05/15 20:21:14;;;;;;;72.83;10.60;;;14.90;99.10;;;;;;4887263;29;20171;-83
2023/05/15 20:23:40;;;;;;;76.73;11.30;;;14.90;96.80;;;;;;4888811;29;20432;-83
2023/05/15 20:26:08;;;;;;;73.10;10.80;;;14.80;96.10;;;;;;4887885;29;20187;-83
2023/05/15 20:28:34;;;;;;;73.87;10.67;;;14.90;97.40;;;;;;4887431;29;20176;-83
2023/05/15 20:31:02;;;;;;;71.40;9.63;;;15.00;94.80;;;;;;4886838;29;20416;-83
2023/05/15 20:33:46;;;;;;;69.83;8.67;;;15.00;93.00;;;;;;4886979;29;20215;-83
2023/05/15 20:36:15;;;;;;;70.90;10.77;;;14.80;92.60;;;;;;4887884;29;20432;-83
2023/05/15 20:38:43;;;;;;;70.90;8.90;;;14.80;91.70;;;;;;4887975;29;20905;-83
2023/05/15 20:41:09;;;;;;;71.20;9.07;;;14.80;92.00;;;;;;4887484;29;20495;-83
2023/05/15 20:43:37;;;;;;;69.60;7.90;;;14.90;91.50;;;;;;4887174;29;20464;-83
2023/05/15 20:46:02;;;;;;;72.53;9.33;;;14.80;87.00;;;;;;4887884;29;20427;-83
2023/05/15 20:48:28;;;;;;;69.37;8.93;;;14.70;90.20;;;;;;4887715;29;20459;-82
2023/05/15 20:50:55;;;;;;;70.37;9.07;;;14.60;91.60;;;;;;4883812;29;20187;-82
2023/05/15 20:53:20;;;;;;;70.60;9.37;;;14.60;93.20;;;;;;4884141;29;20170;-82
2023/05/15 20:55:47;;;;;;;73.00;9.40;;;14.70;93.50;;;;;;4884703;29;20953;-82
2023/05/15 20:58:12;;;;;;;77.10;9.70;;;14.70;91.70;;;;;;4884396;29;20190;-82
2023/05/15 21:00:38;;;;;;;71.43;9.03;;;14.70;91.30;;;;;;4883933;29;20427;-82
2023/05/15 21:03:04;;;;;;;75.87;10.03;;;14.80;90.10;;;;;;4883904;29;20206;-82
2023/05/15 21:05:33;;;;;;;70.07;9.13;;;14.80;90.20;;;;;;4883994;29;20178;-82
2023/05/15 21:07:59;;;;;;;69.80;10.47;;;14.60;91.60;;;;;;4883838;29;20435;-82
2023/05/15 21:10:25;;;;;;;70.60;9.27;;;14.50;93.50;;;;;;4883586;29;20428;-82
2023/05/15 21:12:50;;;;;;;70.60;9.67;;;14.60;92.20;;;;;;4883559;29;20250;-82
2023/05/15 21:15:16;;;;;;;70.30;9.40;;;14.70;90.20;;;;;;4882081;29;20462;-81
2023/05/15 21:17:42;;;;;;;70.80;9.77;;;14.70;91.00;;;;;;4882630;29;20277;-82
2023/05/15 21:20:08;;;;;;;69.40;9.30;;;14.70;91.80;;;;;;4884086;29;20409;-82
2023/05/15 21:22:34;;;;;;;70.50;9.40;;;14.70;91.30;;;;;;4967616;23;20226;-87
2023/05/15 21:24:59;;;;;;;75.60;10.03;;;14.50;92.80;;;;;;4901761;29;20421;-87
2023/05/15 21:27:37;;;;;;;71.93;9.93;;;14.40;89.60;;;;;;4905289;29;20422;-88
2023/05/15 21:30:03;;;;;;;71.57;8.30;;;14.30;91.30;;;;;;4905569;29;20174;-87
2023/05/15 21:32:29;;;;;;;68.43;8.37;;;14.30;91.40;;;;;;4904962;29;20414;-87
2023/05/15 21:34:58;;;;;;;74.20;9.97;;;14.30;93.90;;;;;;4905505;29;20494;-87
2023/05/15 21:37:26;;;;;;;70.10;8.00;;;14.30;96.00;;;;;;4909218;29;20225;-87
2023/05/15 21:39:52;;;;;;;68.27;8.00;;;14.40;93.40;;;;;;4906943;29;20434;-87
2023/05/15 21:42:18;;;;;;;69.77;7.97;;;14.50;87.50;;;;;;4911155;29;20810;-88
2023/05/15 21:44:46;;;;;;;70.77;8.10;;;14.50;86.70;;;;;;4908772;29;20646;-87
2023/05/15 21:47:12;;;;;;;73.33;9.60;;;14.40;90.10;;;;;;4910080;29;20446;-88
2023/05/15 21:49:38;;;;;;;77.00;9.83;;;14.50;89.30;;;;;;4908104;29;20470;-87
2023/05/15 21:52:04;;;;;;;73.13;8.83;;;14.40;80.00;;;;;;4907365;29;20570;-87
2023/05/15 21:54:30;;;;;;;73.47;8.80;;;14.30;83.50;;;;;;4910022;29;20154;-88
2023/05/15 21:57:05;;;;;;;73.00;8.80;;;14.30;83.40;;;;;;4907183;29;20472;-88
2023/05/15 21:59:33;;;;;;;70.83;9.33;;;14.20;83.20;;;;;;4905204;29;20411;-87
2023/05/15 22:01:59;;;;;;;71.43;9.10;;;14.10;91.10;;;;;;4907596;29;20500;-87
2023/05/15 22:04:25;;;;;;;71.77;11.30;;;14.00;93.90;;;;;;4906184;29;20844;-87
2023/05/15 22:06:51;;;;;;;74.53;11.60;;;13.90;96.50;;;;;;4907361;29;20204;-87
2023/05/15 22:09:16;;;;;;;73.07;11.70;;;13.80;99.40;;;;;;4906412;29;20426;-87
2023/05/15 22:11:45;;;;;;;80.73;14.70;;;13.80;98.30;;;;;;4903843;29;20182;-87
2023/05/15 22:14:11;;;;;;;75.30;12.00;;;13.70;99.20;;;;;;4906260;29;20290;-87
2023/05/15 22:16:37;;;;;;;76.83;11.00;;;13.80;99.20;;;;;;4908571;29;20461;-87
2023/05/15 22:19:02;;;;;;;72.87;9.83;;;13.80;99.90;;;;;;4908884;29;20177;-87
2023/05/15 22:21:29;;;;;;;75.93;11.37;;;13.90;98.40;;;;;;4909615;29;20280;-88
2023/05/15 22:23:55;;;;;;;72.27;10.50;;;14.00;97.50;;;;;;4908300;29;20170;-87
2023/05/15 22:26:23;;;;;;;70.80;10.70;;;14.00;95.90;;;;;;4906378;29;20434;-87
2023/05/15 22:28:55;;;;;;;68.70;10.27;;;14.10;93.90;;;;;;4908402;29;20410;-87
2023/05/15 22:31:22;;;;;;;71.60;10.97;;;14.10;94.40;;;;;;4909052;29;20407;-88
2023/05/15 22:33:48;;;;;;;74.27;10.60;;;14.00;97.00;;;;;;4908494;29;20418;-87
2023/05/15 22:36:14;;;;;;;71.83;10.47;;;14.10;95.00;;;;;;4912180;29;20453;-87
2023/05/15 22:38:40;;;;;;;73.27;11.63;;;14.10;96.40;;;;;;4915330;29;20165;-87
2023/05/15 22:41:07;;;;;;;72.80;10.93;;;14.10;97.50;;;;;;4913912;29;20402;-88
2023/05/15 22:43:33;;;;;;;71.10;10.87;;;14.10;96.90;;;;;;4913914;29;20410;-88
2023/05/15 22:46:00;;;;;;;69.03;10.10;;;14.10;97.50;;;;;;4913059;29;20470;-87
2023/05/15 22:48:26;;;;;;;74.63;11.30;;;14.20;96.90;;;;;;4912154;29;20524;-87
2023/05/15 22:50:52;;;;;;;71.23;11.37;;;14.10;97.70;;;;;;4912280;29;20409;-87
2023/05/15 22:53:18;;;;;;;70.53;10.90;;;14.10;98.60;;;;;;4911131;29;20210;-87
2023/05/15 22:55:44;;;;;;;71.60;11.20;;;14.10;99.90;;;;;;4912663;29;20854;-88
2023/05/15 22:58:10;;;;;;;72.57;11.10;;;14.10;99.90;;;;;;4912996;29;20216;-87
2023/05/15 23:00:36;;;;;;;74.00;13.27;;;14.10;99.90;;;;;;4911821;29;20422;-87
2023/05/15 23:03:02;;;;;;;79.47;11.90;;;14.00;99.90;;;;;;4911560;29;20418;-87
2023/05/15 23:05:28;;;;;;;71.67;12.00;;;14.00;99.90;;;;;;4913227;29;20414;-88
2023/05/15 23:07:54;;;;;;;76.83;13.60;;;13.90;99.90;;;;;;4906463;29;20416;-88
2023/05/15 23:10:23;;;;;;;75.93;13.67;;;13.70;99.90;;;;;;4908818;29;20190;-87
2023/05/15 23:12:49;;;;;;;77.60;14.07;;;13.50;99.90;;;;;;4907572;29;20433;-88
2023/05/15 23:15:15;;;;;;;73.00;12.53;;;13.40;99.90;;;;;;4912448;29;20425;-87
2023/05/15 23:17:41;;;;;;;71.17;11.43;;;13.50;99.90;;;;;;4912979;29;20450;-87
2023/05/15 23:20:11;;;;;;;76.27;12.37;;;13.60;99.90;;;;;;4910039;29;20517;-87
2023/05/15 23:22:38;;;;;;;73.00;12.53;;;13.50;99.90;;;;;;4905862;29;20629;-88
2023/05/15 23:25:04;;;;;;;71.87;13.17;;;13.20;99.90;;;;;;4908646;29;20452;-87
2023/05/15 23:27:30;;;;;;;76.40;13.60;;;13.20;99.90;;;;;;4913591;29;20441;-88
2023/05/15 23:29:56;;;;;;;71.70;12.27;;;13.30;99.90;;;;;;4890530;29;20444;-88
2023/05/15 23:32:21;;;;;;;71.47;12.67;;;13.20;99.90;;;;;;4907871;29;20313;-87
2023/05/15 23:34:47;;;;;;;69.13;9.50;;;13.20;99.90;;;;;;4908957;29;20650;-87
2023/05/15 23:37:13;;;;;;;74.27;10.73;;;13.10;99.90;;;;;;4907458;29;20205;-87
2023/05/15 23:39:39;;;;;;;70.50;9.10;;;13.10;99.90;;;;;;4911725;29;20644;-88